Weather at Jane Phillips Heliport

Public forecast

Using degrees Fahrenheit for public forecast. Weather courtesy of forecast.io.

Closest aviation weather report (METAR) to Jane Phillips Heliport

Report is more than 6 hours old.

Closest report is Bartlesville Municipal Airport, 4.9 nm (9.0 km) WNW. Retrieved 2020/10/28 01:53 UTC (15 hours ago):

KBVO 280153Z AUTO 01008KT 8SM -RA OVC009 01/00 A3022 RMK AO2 UPE07B33E38RAB07 SLP237 P0003 T00060000

Closest aviation forecast (TAF) to Jane Phillips Heliport

Closest forecast is Bartlesville Municipal Airport, 4.9 nm (9.0 km) WNW. Retrieved 2020/10/28 12:24 UTC (4 hours ago):

TAF KBVO 281124Z 2812/2912 01006KT 4SM -RA BR OVC005 TEMPO 2812/2816 2SM TSRA OVC003CB FM281600 02008KT 2SM RA BR OVC003 FM290200 02007KT 3SM BR OVC003 PROB30 2904/2908 2SM -RADZ BR OVC002 FM290800 02010KT 3SM -DZ BR OVC003